Time;durP1;ratioP1;P1;durP2;ratioP2;P2;SDS_P1;SDS_P2;PMS_P1;PMS_P2;Temp;Humidity;BMP_temperature;BMP_pressure;BME280_temperature;BME280_humidity;BME280_pressure;Samples;Min_cycle;Max_cycle;Signal;HPM_P1;HPM_P2
2021/04/19 00:00:00;;;;;;;0.20;0.20;;;;;;;-5.15;36.12;99885.94;5091881;28;20028;-58
2021/04/19 00:02:25;;;;;;;3.13;3.03;;;;;;;-5.13;36.26;99888.53;5093734;28;20050;-60
2021/04/19 00:04:51;;;;;;;0.25;0.25;;;;;;;-5.11;36.02;99889.25;5126143;27;20115;-59
2021/04/19 00:07:17;;;;;;;0.20;0.20;;;;;;;-5.12;36.00;99888.41;5093028;28;20024;-57
2021/04/19 00:09:43;;;;;;;0.25;0.25;;;;;;;-5.11;36.34;99883.91;5092966;28;20036;-58
2021/04/19 00:12:10;;;;;;;0.25;0.25;;;;;;;-5.11;35.98;99894.59;5093118;28;20393;-58
2021/04/19 00:14:36;;;;;;;0.20;0.20;;;;;;;-5.14;36.17;99887.69;5093133;28;20044;-59
2021/04/19 00:17:03;;;;;;;0.20;0.20;;;;;;;-5.13;36.38;99892.03;5093318;28;20084;-59
2021/04/19 00:19:29;;;;;;;0.20;0.20;;;;;;;-5.13;36.42;99892.03;5091681;28;20114;-59
2021/04/19 00:21:54;;;;;;;0.25;0.25;;;;;;;-5.14;36.38;99894.84;5092899;28;20584;-59
2021/04/19 00:24:20;;;;;;;0.30;0.30;;;;;;;-5.09;36.37;99895.38;5084600;28;20120;-58
2021/04/19 00:26:46;;;;;;;0.30;0.30;;;;;;;-5.06;36.08;99896.97;5073081;28;20024;-58
2021/04/19 00:29:12;;;;;;;0.30;0.30;;;;;;;-5.04;36.16;99901.25;5073149;28;20421;-58
2021/04/19 00:31:37;;;;;;;0.30;0.30;;;;;;;-5.00;36.33;99893.88;5072836;28;20059;-58
2021/04/19 00:34:03;;;;;;;0.20;0.20;;;;;;;-4.98;36.09;99900.81;5072588;28;20037;-57
2021/04/19 00:36:32;;;;;;;0.30;0.30;;;;;;;-4.95;35.96;99905.09;5072586;28;20482;-58
2021/04/19 00:38:58;;;;;;;0.22;0.22;;;;;;;-4.90;36.10;99904.78;5072309;28;20426;-58
2021/04/19 00:41:24;;;;;;;0.20;0.20;;;;;;;-4.87;36.14;99904.56;5072985;28;20037;-57
2021/04/19 00:43:50;;;;;;;0.20;0.20;;;;;;;-4.83;35.88;99906.06;5071235;28;20590;-59
2021/04/19 00:46:16;;;;;;;0.20;0.20;;;;;;;-4.80;36.05;99906.72;5087881;28;20059;-61
2021/04/19 00:48:42;;;;;;;0.30;0.30;;;;;;;-4.75;35.96;99909.06;5072677;28;20020;-60
2021/04/19 00:51:08;;;;;;;0.20;0.20;;;;;;;-4.70;35.82;99906.88;5072506;28;20043;-58
2021/04/19 00:53:36;;;;;;;0.20;0.20;;;;;;;-4.71;35.83;99913.22;5072339;28;20064;-57
2021/04/19 00:56:02;;;;;;;0.30;0.30;;;;;;;-4.69;35.89;99913.13;5072355;28;20450;-57
2021/04/19 00:58:33;;;;;;;0.20;0.20;;;;;;;-4.65;35.82;99914.59;5072488;28;20032;-57
2021/04/19 01:00:59;;;;;;;0.30;0.30;;;;;;;-4.60;35.70;99917.81;5072813;28;20040;-57
2021/04/19 01:03:26;;;;;;;0.35;0.35;;;;;;;-4.53;35.81;99926.25;5072322;28;20032;-58
2021/04/19 01:05:52;;;;;;;0.30;0.30;;;;;;;-4.50;35.66;99929.59;5072709;28;20028;-58
2021/04/19 01:08:18;;;;;;;0.20;0.20;;;;;;;-4.44;35.89;99925.59;5072729;28;20029;-60
2021/04/19 01:10:44;;;;;;;0.20;0.20;;;;;;;-4.35;35.74;99924.94;5072316;28;20056;-57
2021/04/19 01:13:10;;;;;;;0.30;0.30;;;;;;;-4.28;35.78;99931.56;5072489;28;20036;-58
2021/04/19 01:15:36;;;;;;;1.65;1.55;;;;;;;-4.19;35.55;99939.91;5072449;28;20040;-57
2021/04/19 01:18:03;;;;;;;0.20;0.20;;;;;;;-4.13;35.62;99928.72;5072501;28;20031;-58
2021/04/19 01:20:31;;;;;;;0.25;0.25;;;;;;;-4.07;35.44;99931.78;5072641;28;20036;-58
2021/04/19 01:22:57;;;;;;;0.20;0.20;;;;;;;-4.01;35.73;99933.16;5072073;28;20036;-58
2021/04/19 01:25:27;;;;;;;0.20;0.20;;;;;;;-3.95;35.56;99937.22;5072132;28;20036;-57
2021/04/19 01:27:53;;;;;;;0.20;0.20;;;;;;;-3.83;35.49;99943.50;5072307;28;20036;-58
2021/04/19 01:30:23;;;;;;;0.20;0.20;;;;;;;-3.72;35.45;99940.88;5072138;28;20033;-59
2021/04/19 01:32:49;;;;;;;0.30;0.30;;;;;;;-3.61;35.35;99930.16;5072162;28;20435;-59
2021/04/19 01:35:16;;;;;;;0.47;0.47;;;;;;;-3.49;35.29;99941.78;5072315;28;20032;-58
2021/04/19 01:37:42;;;;;;;0.52;0.35;;;;;;;-3.38;35.46;99947.22;5072039;28;20053;-60
2021/04/19 01:40:11;;;;;;;0.20;0.20;;;;;;;-3.13;35.32;99944.47;5071775;28;20502;-58
2021/04/19 01:42:37;;;;;;;0.47;0.47;;;;;;;-1.47;33.24;99941.81;5071833;28;20443;-59
2021/04/19 01:45:06;;;;;;;0.20;0.20;;;;;;;1.29;30.17;99935.06;5071872;28;20025;-57
2021/04/19 01:47:32;;;;;;;0.25;0.25;;;;;;;3.88;27.64;99934.34;5071854;28;20032;-58
2021/04/19 01:49:58;;;;;;;0.20;0.20;;;;;;;6.09;25.76;99929.81;5071647;28;20111;-57
2021/04/19 01:52:23;;;;;;;0.20;0.20;;;;;;;7.95;24.66;99925.78;5071787;28;20124;-58
2021/04/19 01:54:50;;;;;;;0.20;0.20;;;;;;;9.45;24.22;99923.28;5071811;28;20065;-58
2021/04/19 01:57:16;;;;;;;1.60;0.90;;;;;;;10.59;23.80;99916.44;5075658;28;20517;-57
2021/04/19 01:59:43;;;;;;;0.20;0.20;;;;;;;11.57;23.73;99921.34;5080604;28;20024;-58
2021/04/19 02:02:21;;;;;;;0.30;0.30;;;;;;;12.51;23.74;99918.28;5092914;28;20035;-58
2021/04/19 02:05:09;;;;;;;0.28;0.28;;;;;;;13.36;23.79;99925.34;5093664;28;20031;-60
2021/04/19 02:08:02;;;;;;;0.30;0.30;;;;;;;14.15;23.77;99921.97;5091916;28;20027;-59
2021/04/19 02:10:42;;;;;;;0.20;0.20;;;;;;;14.76;23.72;99920.09;5090727;28;20039;-59
2021/04/19 02:13:14;;;;;;;1.55;0.60;;;;;;;15.37;23.65;99922.75;5090388;28;20417;-58
2021/04/19 02:15:52;;;;;;;0.68;0.55;;;;;;;15.99;23.56;99919.53;5074198;28;20032;-59
2021/04/19 02:18:35;;;;;;;0.35;0.35;;;;;;;16.48;23.83;99923.88;5092418;28;20393;-59
2021/04/19 02:21:13;;;;;;;0.55;0.38;;;;;;;16.92;23.88;99929.72;5075419;28;20110;-59
2021/04/19 02:23:51;;;;;;;0.30;0.30;;;;;;;17.21;23.65;99927.75;5092226;28;20035;-59
2021/04/19 02:26:22;;;;;;;0.30;0.30;;;;;;;17.50;24.07;99925.72;5088539;28;20047;-58
2021/04/19 02:29:23;;;;;;;0.28;0.28;;;;;;;17.84;23.71;99922.03;5093219;28;20043;-60
2021/04/19 02:31:54;;;;;;;0.20;0.20;;;;;;;18.32;24.06;99928.00;4983422;28;20045;-59
2021/04/19 02:34:21;;;;;;;0.20;0.20;;;;;;;18.77;23.78;99931.56;4977773;28;20054;-59
2021/04/19 02:36:50;;;;;;;0.15;0.15;;;;;;;19.10;23.70;99924.16;4993686;28;20042;-59
2021/04/19 02:39:17;;;;;;;0.90;0.90;;;;;;;19.40;23.67;99917.97;4993261;28;20042;-60
2021/04/19 02:41:48;;;;;;;0.10;0.10;;;;;;;19.75;23.65;99928.53;4993436;28;20042;-58
2021/04/19 02:44:15;;;;;;;0.10;0.10;;;;;;;20.05;23.67;99923.47;4993372;28;20046;-59
2021/04/19 02:46:42;;;;;;;1.98;1.27;;;;;;;20.24;23.61;99930.28;4993073;28;20049;-59
2021/04/19 02:49:09;;;;;;;0.13;0.13;;;;;;;20.31;23.73;99925.25;4993168;28;20061;-61
2021/04/19 02:51:38;;;;;;;0.98;0.63;;;;;;;20.43;23.92;99932.56;4993205;28;20034;-59
2021/04/19 02:54:04;;;;;;;0.50;0.50;;;;;;;20.68;23.92;99928.22;4979615;28;20501;-60
2021/04/19 02:56:34;;;;;;;0.32;0.32;;;;;;;20.92;23.84;99937.78;4982828;28;20026;-58
2021/04/19 02:59:05;;;;;;;0.30;0.30;;;;;;;21.11;23.70;99938.09;4992686;28;20042;-58
2021/04/19 03:01:34;;;;;;;0.10;0.10;;;;;;;21.35;23.67;99937.53;4992723;28;20042;-57
2021/04/19 03:04:05;;;;;;;1.40;0.35;;;;;;;21.53;23.51;99936.16;4992363;28;20480;-58
2021/04/19 03:06:32;;;;;;;0.20;0.20;;;;;;;22.04;23.23;99947.28;5003181;28;20070;-60
2021/04/19 03:09:01;;;;;;;0.20;0.20;;;;;;;22.33;23.11;99938.25;5080842;28;20115;-59
2021/04/19 03:11:34;;;;;;;1.17;0.45;;;;;;;22.45;23.31;99939.88;5093062;28;20595;-59
2021/04/19 03:14:03;;;;;;;0.32;0.32;;;;;;;22.54;23.16;99946.56;5094472;28;20129;-59
2021/04/19 03:16:31;;;;;;;0.60;0.60;;;;;;;22.33;23.54;99938.25;5090325;28;20036;-59
2021/04/19 03:19:00;;;;;;;0.22;0.22;;;;;;;22.42;23.50;99944.09;5094584;28;20055;-59
2021/04/19 03:21:27;;;;;;;0.20;0.20;;;;;;;23.08;23.25;99942.06;5093928;28;20043;-60
2021/04/19 03:24:01;;;;;;;0.40;0.25;;;;;;;23.10;23.06;99942.66;5094404;28;20031;-60
2021/04/19 03:26:29;;;;;;;0.28;0.28;;;;;;;23.13;23.46;99941.22;5093605;28;20517;-58
2021/04/19 03:28:57;;;;;;;0.20;0.20;;;;;;;23.08;23.30;99940.06;5093998;28;20042;-58
2021/04/19 03:31:41;;;;;;;0.32;0.32;;;;;;;23.11;23.49;99949.06;5094151;28;20032;-61
2021/04/19 03:34:15;;;;;;;;;;;;;;;23.37;23.45;99936.53;5074078;28;20123;-59
2021/04/19 03:36:42;;;;;;;0.10;0.10;;;;;;;23.44;23.51;99939.03;5055153;28;19912;-60
2021/04/19 03:39:10;;;;;;;0.30;0.30;;;;;;;23.40;23.34;99944.38;5074454;28;20117;-60
2021/04/19 03:41:41;;;;;;;0.10;0.10;;;;;;;23.49;23.14;99938.13;5093509;28;20510;-61
2021/04/19 03:44:11;;;;;;;0.50;0.50;;;;;;;23.60;23.04;99934.09;5075973;28;20032;-61
2021/04/19 03:46:40;;;;;;;0.10;0.10;;;;;;;23.76;23.38;99930.03;5093425;28;20140;-61
2021/04/19 03:49:11;;;;;;;0.47;0.45;;;;;;;23.89;23.31;99925.72;5093537;28;20111;-62
2021/04/19 03:51:39;;;;;;;0.10;0.10;;;;;;;23.89;23.01;99928.50;5075157;28;20036;-60
2021/04/19 03:54:05;;;;;;;0.20;0.20;;;;;;;23.55;23.55;99928.53;5093265;28;20032;-62
2021/04/19 03:56:34;;;;;;;0.70;0.65;;;;;;;23.31;23.76;99922.88;5093174;28;20036;-60
2021/04/19 03:59:04;;;;;;;0.20;0.20;;;;;;;23.31;23.62;99928.50;5093176;28;20398;-60
2021/04/19 04:01:33;;;;;;;0.10;0.10;;;;;;;23.40;23.34;99929.53;5093492;28;20061;-61
2021/04/19 04:03:59;;;;;;;0.30;0.30;;;;;;;23.63;23.28;99930.72;5109178;28;20019;-60
2021/04/19 04:06:26;;;;;;;0.28;0.28;;;;;;;23.94;23.07;99922.88;5113266;28;20062;-58
2021/04/19 04:08:54;;;;;;;0.10;0.10;;;;;;;23.97;22.86;99921.44;5113258;28;20028;-58
2021/04/19 04:11:20;;;;;;;0.10;0.10;;;;;;;23.68;23.12;99936.28;5113554;28;20061;-59
2021/04/19 04:13:46;;;;;;;0.10;0.10;;;;;;;23.75;23.13;99917.13;5113686;28;20050;-58
2021/04/19 04:16:11;;;;;;;0.10;0.10;;;;;;;23.76;23.12;99927.22;5113678;28;20027;-59
2021/04/19 04:18:37;;;;;;;0.20;0.20;;;;;;;23.98;22.72;99919.47;5112877;28;20023;-59
2021/04/19 04:21:03;;;;;;;0.15;0.15;;;;;;;23.47;23.00;99917.97;5103135;28;20454;-60
2021/04/19 04:23:29;;;;;;;0.52;0.30;;;;;;;21.24;24.64;99924.69;5100577;28;20501;-59
2021/04/19 04:25:55;;;;;;;0.20;0.20;;;;;;;17.79;27.77;99931.13;5074852;28;20085;-58
2021/04/19 04:28:21;;;;;;;0.15;0.15;;;;;;;15.05;30.21;99929.44;5092771;28;20028;-60
2021/04/19 04:30:47;;;;;;;0.35;0.35;;;;;;;12.75;32.37;99932.31;5092971;28;20031;-59
2021/04/19 04:33:13;;;;;;;0.30;0.30;;;;;;;10.93;33.60;99933.00;5092870;28;20405;-59
2021/04/19 04:35:39;;;;;;;0.10;0.10;;;;;;;9.38;34.36;99936.94;5092427;28;20039;-58
2021/04/19 04:38:05;;;;;;;0.10;0.10;;;;;;;8.15;34.88;99936.13;5084084;28;20052;-58
2021/04/19 04:40:32;;;;;;;1.17;0.50;;;;;;;7.41;34.56;99928.81;5054899;28;20040;-59
2021/04/19 04:43:11;;;;;;;0.10;0.10;;;;;;;6.82;33.90;99924.91;5072300;28;20024;-59
2021/04/19 04:45:38;;;;;;;0.20;0.20;;;;;;;6.44;33.55;99928.41;5072319;28;20028;-60
2021/04/19 04:48:24;;;;;;;0.10;0.10;;;;;;;5.86;33.05;99936.03;5072390;28;20115;-58
2021/04/19 04:51:09;;;;;;;0.10;0.10;;;;;;;5.43;32.67;99936.34;5072654;28;20165;-58
2021/04/19 04:53:43;;;;;;;0.30;0.30;;;;;;;5.24;32.25;99934.84;5072605;28;20071;-57
2021/04/19 04:56:12;;;;;;;0.20;0.20;;;;;;;5.07;31.64;99934.00;5072203;28;20449;-58
2021/04/19 04:58:40;;;;;;;0.20;0.20;;;;;;;5.00;31.19;99935.69;5072594;28;20090;-59
2021/04/19 05:01:08;;;;;;;0.10;0.10;;;;;;;4.83;30.81;99934.88;5072116;28;20021;-58
2021/04/19 05:03:38;;;;;;;0.20;0.20;;;;;;;4.47;30.71;99937.88;5072764;28;20033;-59
2021/04/19 05:06:08;;;;;;;0.10;0.10;;;;;;;4.17;30.63;99940.22;5072002;28;20039;-59
2021/04/19 05:08:38;;;;;;;0.20;0.20;;;;;;;3.96;30.52;99932.50;5054001;28;20041;-59
2021/04/19 05:11:04;;;;;;;0.20;0.20;;;;;;;3.75;30.62;99940.22;5072349;28;20482;-58
2021/04/19 05:13:30;;;;;;;0.10;0.10;;;;;;;3.65;30.15;99934.91;5072510;28;20452;-58
2021/04/19 05:15:56;;;;;;;0.20;0.20;;;;;;;3.60;30.03;99929.13;5072381;28;20085;-60
2021/04/19 05:18:22;;;;;;;0.20;0.20;;;;;;;3.60;29.59;99931.84;5088049;28;20028;-57
2021/04/19 05:20:48;;;;;;;0.20;0.20;;;;;;;3.60;29.37;99935.41;5071856;28;20031;-59
2021/04/19 05:23:15;;;;;;;0.10;0.10;;;;;;;3.50;29.20;99926.50;5087451;28;20510;-57
2021/04/19 05:25:43;;;;;;;0.20;0.20;;;;;;;3.42;28.96;99927.34;5071884;28;20123;-59
2021/04/19 05:28:09;;;;;;;0.65;0.65;;;;;;;3.43;28.87;99914.59;5037509;28;20039;-58
2021/04/19 05:30:36;;;;;;;0.20;0.20;;;;;;;3.40;28.73;99923.94;5073231;28;20025;-57
2021/04/19 05:33:05;;;;;;;0.20;0.20;;;;;;;3.23;28.70;99919.41;5075948;28;20033;-59
2021/04/19 05:35:34;;;;;;;0.20;0.20;;;;;;;2.98;28.84;99930.09;5075467;28;20036;-58
2021/04/19 05:38:01;;;;;;;0.17;0.17;;;;;;;2.87;28.72;99924.91;5075432;28;20395;-58
2021/04/19 05:40:31;;;;;;;0.20;0.20;;;;;;;2.78;28.63;99935.72;5076077;28;20169;-59
2021/04/19 05:42:58;;;;;;;0.20;0.20;;;;;;;2.71;28.45;99926.50;5075483;28;20032;-59
2021/04/19 05:45:25;;;;;;;0.20;0.20;;;;;;;2.60;28.65;99922.16;5075527;28;20044;-58
2021/04/19 05:47:52;;;;;;;0.20;0.20;;;;;;;2.63;28.30;99923.72;5040976;28;20398;-59
2021/04/19 05:50:20;;;;;;;0.20;0.20;;;;;;;2.59;28.03;99942.16;5075643;28;20042;-58
2021/04/19 05:52:48;;;;;;;0.20;0.20;;;;;;;2.49;28.27;99922.41;5075245;28;20579;-57
2021/04/19 05:55:20;;;;;;;0.20;0.20;;;;;;;2.44;28.09;99925.59;5075199;28;20036;-59
2021/04/19 05:58:08;;;;;;;0.20;0.20;;;;;;;2.38;27.95;99933.47;5075611;28;20450;-59
2021/04/19 06:00:49;;;;;;;0.30;0.30;;;;;;;2.31;27.90;99935.09;5057054;28;20559;-60
2021/04/19 06:03:32;;;;;;;0.20;0.20;;;;;;;2.13;28.07;99933.22;5075470;28;20459;-59
2021/04/19 06:05:58;;;;;;;0.20;0.20;;;;;;;2.07;27.77;99934.69;5075234;28;20592;-59
2021/04/19 06:08:34;;;;;;;0.75;0.75;;;;;;;2.12;27.80;99933.38;5074926;28;20108;-59
2021/04/19 06:11:20;;;;;;;0.20;0.20;;;;;;;2.31;27.54;99926.97;5075296;28;20091;-58
2021/04/19 06:13:49;;;;;;;0.20;0.20;;;;;;;2.49;27.34;99924.25;5075570;28;20036;-59
2021/04/19 06:16:17;;;;;;;0.20;0.20;;;;;;;2.54;27.17;99924.66;5078458;28;20035;-59
2021/04/19 06:18:45;;;;;;;0.20;0.20;;;;;;;2.54;27.21;99914.66;5094016;28;20032;-59
2021/04/19 06:21:12;;;;;;;0.20;0.20;;;;;;;2.59;27.14;99923.19;5088883;28;20168;-58
2021/04/19 06:23:40;;;;;;;0.20;0.20;;;;;;;2.61;27.11;99920.31;5074836;28;20107;-58
2021/04/19 06:26:09;;;;;;;0.20;0.20;;;;;;;2.51;27.07;99927.69;5075154;28;20211;-60
2021/04/19 06:28:36;;;;;;;0.20;0.20;;;;;;;2.40;27.36;99926.03;5074968;28;20423;-58
2021/04/19 06:31:04;;;;;;;0.20;0.20;;;;;;;2.30;27.30;99918.00;5075146;28;20059;-58
2021/04/19 06:33:32;;;;;;;0.30;0.30;;;;;;;2.29;27.18;99924.41;5074976;28;20024;-58
2021/04/19 06:35:58;;;;;;;0.20;0.20;;;;;;;2.27;27.38;99918.31;5079173;28;20039;-57
2021/04/19 06:38:24;;;;;;;0.20;0.20;;;;;;;2.35;27.27;99929.22;5095074;28;20056;-58
2021/04/19 06:40:50;;;;;;;0.20;0.20;;;;;;;2.37;26.92;99924.50;5094619;28;20036;-58
2021/04/19 06:43:18;;;;;;;0.20;0.20;;;;;;;2.38;27.01;99915.34;5094900;28;20036;-57
2021/04/19 06:45:44;;;;;;;0.20;0.20;;;;;;;2.39;27.02;99933.31;5094909;28;20040;-58
2021/04/19 06:48:12;;;;;;;0.20;0.20;;;;;;;2.30;27.14;99927.97;5094806;28;20089;-58
2021/04/19 06:50:39;;;;;;;0.20;0.20;;;;;;;2.30;27.05;99928.84;5094590;28;20036;-58
2021/04/19 06:53:05;;;;;;;0.20;0.20;;;;;;;2.36;27.01;99938.22;5110069;28;20039;-59
2021/04/19 06:55:31;;;;;;;0.20;0.20;;;;;;;2.39;27.04;99917.06;5094513;28;20039;-58
2021/04/19 06:57:59;;;;;;;0.20;0.20;;;;;;;2.50;26.74;99915.13;5084294;28;20028;-59
2021/04/19 07:00:27;;;;;;;0.20;0.20;;;;;;;2.57;26.79;99911.63;5062820;28;20032;-59
2021/04/19 07:02:58;;;;;;;0.20;0.20;;;;;;;2.67;26.64;99908.84;5078954;28;20071;-60
2021/04/19 07:05:29;;;;;;;0.20;0.20;;;;;;;2.76;26.64;99912.47;5084438;28;20447;-60
2021/04/19 07:08:00;;;;;;;0.20;0.20;;;;;;;2.75;26.59;99902.63;5067621;28;20472;-60
2021/04/19 07:10:26;;;;;;;0.20;0.20;;;;;;;2.71;26.58;99941.91;5082193;28;20089;-61
2021/04/19 07:12:55;;;;;;;0.20;0.20;;;;;;;2.56;26.78;99907.22;5092230;28;20494;-59
2021/04/19 07:15:21;;;;;;;0.20;0.20;;;;;;;2.48;26.67;99914.44;5074120;28;20035;-60
2021/04/19 07:17:51;;;;;;;0.40;0.40;;;;;;;2.50;26.79;99904.28;5084331;28;20126;-59
2021/04/19 07:20:18;;;;;;;0.30;0.30;;;;;;;2.60;26.64;99907.75;5085549;28;20050;-59
2021/04/19 07:22:45;;;;;;;0.20;0.20;;;;;;;2.65;26.62;99918.13;5084297;28;20071;-59
2021/04/19 07:25:11;;;;;;;0.20;0.20;;;;;;;2.63;26.50;99907.44;5061025;28;20039;-58
2021/04/19 07:27:39;;;;;;;0.20;0.20;;;;;;;2.71;26.68;99907.53;5086442;28;20553;-60
2021/04/19 07:30:07;;;;;;;0.20;0.20;;;;;;;2.82;26.35;99900.97;5073706;28;20028;-59
2021/04/19 07:32:38;;;;;;;0.20;0.20;;;;;;;2.89;26.68;99912.06;5070209;28;20421;-60
2021/04/19 07:35:06;;;;;;;0.30;0.30;;;;;;;2.89;26.28;99901.22;5073031;28;20036;-60
2021/04/19 07:37:33;;;;;;;0.20;0.20;;;;;;;2.84;26.57;99895.41;5089159;28;20051;-59
2021/04/19 07:40:00;;;;;;;0.20;0.20;;;;;;;2.85;26.25;99897.09;5102245;28;20374;-61
2021/04/19 07:42:26;;;;;;;0.20;0.20;;;;;;;2.85;26.43;99897.09;5082570;28;20678;-58
2021/04/19 07:44:54;;;;;;;0.20;0.20;;;;;;;2.74;26.50;99896.34;5080719;28;20040;-59
2021/04/19 07:47:31;;;;;;;0.20;0.20;;;;;;;2.75;26.42;99895.34;5096682;28;20046;-61
2021/04/19 07:50:22;;;;;;;0.20;0.20;;;;;;;2.64;26.59;99887.47;5102144;28;20028;-61
2021/04/19 07:53:00;;;;;;;0.20;0.20;;;;;;;2.64;26.54;99895.59;5090863;28;20068;-62
2021/04/19 07:55:30;;;;;;;0.20;0.20;;;;;;;2.63;26.50;99902.00;5089556;28;20043;-61
2021/04/19 07:57:56;;;;;;;0.20;0.20;;;;;;;2.64;26.62;99892.88;5098781;28;20027;-60
2021/04/19 08:00:37;;;;;;;0.20;0.20;;;;;;;2.65;26.50;99883.75;5094273;28;20035;-62
2021/04/19 08:03:09;;;;;;;0.65;0.65;;;;;;;2.73;26.54;99886.50;5078853;28;20034;-62
2021/04/19 08:05:39;;;;;;;0.20;0.20;;;;;;;2.85;26.32;99895.25;5097922;28;20078;-60
2021/04/19 08:08:06;;;;;;;0.55;0.55;;;;;;;2.90;26.31;99906.47;5101080;28;20038;-61
2021/04/19 08:10:35;;;;;;;0.20;0.20;;;;;;;2.91;26.31;99888.34;5102509;28;20433;-61
2021/04/19 08:13:05;;;;;;;0.20;0.20;;;;;;;2.89;26.45;99876.81;5101069;28;20100;-61
2021/04/19 08:15:32;;;;;;;0.22;0.22;;;;;;;2.91;26.43;99880.19;5100141;28;20512;-60
2021/04/19 08:18:04;;;;;;;0.20;0.20;;;;;;;2.89;26.55;99874.09;5069200;28;20032;-61
2021/04/19 08:20:30;;;;;;;0.20;0.20;;;;;;;2.86;26.45;99882.53;5094746;28;20036;-62
2021/04/19 08:23:09;;;;;;;0.20;0.20;;;;;;;2.86;26.54;99879.84;5089764;28;20031;-59
2021/04/19 08:25:37;;;;;;;0.20;0.20;;;;;;;2.87;26.42;99887.81;5097014;28;20038;-59
2021/04/19 08:28:07;;;;;;;0.20;0.20;;;;;;;2.79;26.49;99877.72;5101104;28;20035;-59
2021/04/19 08:30:35;;;;;;;0.20;0.20;;;;;;;2.76;26.59;99874.50;5099896;28;20055;-60
2021/04/19 08:33:01;;;;;;;0.20;0.20;;;;;;;2.82;26.38;99859.47;5082517;28;20494;-59
2021/04/19 08:35:29;;;;;;;0.20;0.20;;;;;;;2.96;26.27;99858.88;5088907;28;20045;-60
2021/04/19 08:37:58;;;;;;;0.30;0.30;;;;;;;3.08;26.35;99862.16;5085258;28;20506;-59
2021/04/19 08:40:26;;;;;;;0.20;0.20;;;;;;;3.15;26.24;99853.22;5075495;28;20040;-58
2021/04/19 08:42:52;;;;;;;0.20;0.20;;;;;;;3.21;26.17;99862.59;5078993;28;20179;-59
2021/04/19 08:45:19;;;;;;;0.20;0.20;;;;;;;3.22;26.15;99871.56;5066993;28;20028;-59
2021/04/19 08:47:45;;;;;;;0.20;0.20;;;;;;;3.22;26.30;99847.97;5064730;28;20033;-60
2021/04/19 08:50:17;;;;;;;0.20;0.20;;;;;;;3.32;26.00;99854.13;5080428;28;20028;-61
2021/04/19 08:52:44;;;;;;;0.20;0.20;;;;;;;3.37;26.30;99858.22;5077717;28;20512;-63
2021/04/19 08:55:13;;;;;;;0.20;0.20;;;;;;;3.39;26.32;99856.22;5053423;28;20055;-60
2021/04/19 08:57:42;;;;;;;0.20;0.20;;;;;;;3.40;26.18;99855.19;5072930;28;20032;-61
2021/04/19 09:00:10;;;;;;;0.20;0.20;;;;;;;3.42;26.25;99850.47;5090692;28;20063;-61
2021/04/19 09:02:36;;;;;;;0.20;0.20;;;;;;;3.44;26.20;99846.56;5088040;28;20053;-62
2021/04/19 09:05:14;;;;;;;0.20;0.20;;;;;;;3.50;26.32;99845.94;5085332;28;20039;-64
2021/04/19 09:07:49;;;;;;;0.20;0.20;;;;;;;3.58;26.08;99844.22;5093261;28;20419;-60
2021/04/19 09:10:19;;;;;;;;;;;;;;;3.55;26.17;99840.00;5089172;28;20067;-60
2021/04/19 09:12:46;;;;;;;0.20;0.20;;;;;;;3.57;26.21;99834.41;5093676;28;19922;-60
2021/04/19 09:15:24;;;;;;;0.20;0.20;;;;;;;3.66;26.02;99833.41;5094460;28;20097;-61
2021/04/19 09:18:09;;;;;;;0.20;0.20;;;;;;;3.76;25.98;99831.41;5094418;28;20028;-62
2021/04/19 09:20:46;;;;;;;0.30;0.30;;;;;;;3.82;26.04;99838.03;5088023;28;20511;-61
2021/04/19 09:23:25;;;;;;;0.20;0.20;;;;;;;3.83;26.10;99831.59;5094584;28;20466;-61
2021/04/19 09:25:52;;;;;;;0.20;0.20;;;;;;;3.85;26.07;99837.69;5094623;28;20124;-60
2021/04/19 09:28:39;;;;;;;0.20;0.20;;;;;;;3.85;26.07;99827.66;5094211;28;20055;-60
2021/04/19 09:31:06;;;;;;;0.20;0.20;;;;;;;3.86;26.18;99840.25;5092676;28;20028;-60
2021/04/19 09:33:33;;;;;;;0.20;0.20;;;;;;;3.82;26.18;99835.31;5093986;28;20023;-61
2021/04/19 09:35:58;;;;;;;0.25;0.25;;;;;;;3.79;26.20;99833.78;5088887;28;20401;-61
2021/04/19 09:38:33;;;;;;;0.20;0.20;;;;;;;3.76;26.25;99833.28;5080346;28;20109;-60
2021/04/19 09:41:05;;;;;;;0.20;0.20;;;;;;;3.72;26.25;99831.91;5112152;28;20087;-61
2021/04/19 09:43:43;;;;;;;0.20;0.20;;;;;;;3.71;26.31;99824.75;5111533;27;20035;-62
2021/04/19 09:46:21;;;;;;;0.20;0.20;;;;;;;3.77;26.19;99841.25;5114634;28;20131;-62
2021/04/19 09:48:53;;;;;;;0.20;0.20;;;;;;;3.78;26.13;99825.78;5114419;27;20032;-62
2021/04/19 09:51:24;;;;;;;0.20;0.20;;;;;;;3.79;26.20;99833.78;5112034;28;20566;-63
2021/04/19 09:54:03;;;;;;;0.20;0.20;;;;;;;3.88;26.07;99818.34;5114234;28;20035;-61
2021/04/19 09:56:41;;;;;;;0.20;0.20;;;;;;;3.92;26.27;99822.44;5107998;27;20032;-60
2021/04/19 09:59:18;;;;;;;0.20;0.20;;;;;;;3.95;26.10;99837.56;5112196;28;20034;-60
2021/04/19 10:01:50;;;;;;;0.20;0.20;;;;;;;3.92;26.18;99816.16;5113914;28;20031;-64
2021/04/19 10:04:17;;;;;;;0.20;0.20;;;;;;;3.92;25.96;99819.72;5116499;27;20036;-60
2021/04/19 10:06:46;;;;;;;0.20;0.20;;;;;;;3.95;26.19;99821.25;5100349;27;20093;-60
2021/04/19 10:09:16;;;;;;;0.20;0.20;;;;;;;3.95;26.14;99829.41;5106271;28;20117;-60
2021/04/19 10:11:45;;;;;;;0.20;0.20;;;;;;;3.99;26.08;99811.72;5111283;28;20034;-61
2021/04/19 10:14:16;;;;;;;0.20;0.20;;;;;;;4.05;26.00;99819.25;5108283;27;20532;-60
2021/04/19 10:16:47;;;;;;;0.20;0.20;;;;;;;4.08;26.01;99813.47;5094843;28;20020;-60
2021/04/19 10:19:23;;;;;;;0.20;0.20;;;;;;;4.12;25.98;99831.13;5095255;28;20035;-61
2021/04/19 10:22:06;;;;;;;0.20;0.20;;;;;;;4.10;26.00;99807.84;5111898;28;20126;-61
2021/04/19 10:24:34;;;;;;;0.22;0.22;;;;;;;4.04;26.04;99821.09;5111918;28;20024;-58
2021/04/19 10:27:01;;;;;;;0.20;0.20;;;;;;;3.97;25.96;99803.75;5113444;28;20511;-59
2021/04/19 10:29:27;;;;;;;0.17;0.17;;;;;;;3.97;26.16;99805.63;5101462;27;20401;-60
2021/04/19 10:31:58;;;;;;;0.20;0.20;;;;;;;4.00;25.97;99799.84;5113352;28;20028;-61
2021/04/19 10:34:30;;;;;;;0.20;0.20;;;;;;;4.04;25.94;99799.34;5110991;27;20503;-61
2021/04/19 10:37:01;;;;;;;0.20;0.20;;;;;;;4.14;25.87;99804.63;5111324;28;20027;-60
2021/04/19 10:39:31;;;;;;;0.20;0.20;;;;;;;4.24;25.95;99796.31;5091535;28;20036;-61
2021/04/19 10:42:04;;;;;;;0.20;0.20;;;;;;;4.31;25.75;99808.19;5091680;28;20054;-59
2021/04/19 10:44:42;;;;;;;0.20;0.20;;;;;;;4.39;25.80;99796.47;5091663;28;20034;-61
2021/04/19 10:47:10;;;;;;;0.20;0.20;;;;;;;4.43;25.83;99800.56;5086271;28;20036;-59
2021/04/19 10:49:37;;;;;;;0.10;0.10;;;;;;;4.45;25.70;99795.78;5089411;28;20031;-59
2021/04/19 10:52:11;;;;;;;0.10;0.10;;;;;;;4.47;25.89;99792.91;5090286;28;20038;-60
2021/04/19 10:54:39;;;;;;;0.20;0.20;;;;;;;4.46;25.78;99786.63;5090864;28;20489;-60
2021/04/19 10:57:07;;;;;;;0.20;0.20;;;;;;;4.48;25.85;99784.56;5093113;28;20761;-61
2021/04/19 10:59:34;;;;;;;0.20;0.20;;;;;;;4.52;25.61;99785.94;5072493;28;20024;-61
2021/04/19 11:02:03;;;;;;;0.20;0.20;;;;;;;4.59;25.68;99779.81;5092219;28;20450;-59
2021/04/19 11:04:30;;;;;;;0.20;0.20;;;;;;;4.64;25.66;99777.41;5087733;28;20409;-60
2021/04/19 11:07:21;;;;;;;0.20;0.20;;;;;;;4.68;25.69;99779.63;5092311;28;20028;-59
2021/04/19 11:09:47;;;;;;;0.20;0.20;;;;;;;4.71;25.64;99789.28;5092175;28;20043;-62
2021/04/19 11:12:13;;;;;;;0.20;0.20;;;;;;;4.77;25.57;99785.91;5091981;28;20032;-60
2021/04/19 11:14:39;;;;;;;0.20;0.20;;;;;;;4.77;25.68;99785.03;5091048;28;20402;-59
2021/04/19 11:17:07;;;;;;;0.20;0.20;;;;;;;4.72;25.69;99788.28;5092493;28;20028;-60
2021/04/19 11:19:44;;;;;;;0.20;0.20;;;;;;;4.64;25.81;99780.13;5085569;28;20240;-60
2021/04/19 11:22:35;;;;;;;0.25;0.25;;;;;;;4.60;25.70;99776.91;5086756;28;20131;-62
2021/04/19 11:25:21;;;;;;;0.10;0.10;;;;;;;4.55;25.96;99777.44;5090969;28;20094;-61
2021/04/19 11:27:51;;;;;;;0.10;0.10;;;;;;;4.60;25.98;99776.91;5088343;28;20094;-61
2021/04/19 11:30:25;;;;;;;0.20;0.20;;;;;;;4.64;25.82;99772.81;5090281;28;20043;-59
2021/04/19 11:33:08;;;;;;;0.20;0.20;;;;;;;4.65;25.78;99768.22;5083266;28;20489;-60
2021/04/19 11:35:46;;;;;;;0.10;0.10;;;;;;;4.65;25.89;99757.34;5088365;28;20123;-59
2021/04/19 11:38:25;;;;;;;0.10;0.10;;;;;;;4.67;25.68;99761.59;5092455;28;20066;-58
2021/04/19 11:40:52;;;;;;;0.10;0.10;;;;;;;4.74;25.75;99762.59;5100183;28;20027;-59
2021/04/19 11:43:21;;;;;;;1.13;0.60;;;;;;;4.81;25.74;99760.00;5099963;28;20072;-60
2021/04/19 11:45:54;;;;;;;0.20;0.20;;;;;;;4.88;25.69;99763.75;5092921;28;20042;-59
2021/04/19 11:48:19;;;;;;;0.20;0.20;;;;;;;4.93;25.69;99759.66;5101521;28;20055;-60
2021/04/19 11:50:45;;;;;;;0.20;0.20;;;;;;;4.93;25.81;99756.94;5092525;28;20035;-61